Time;durP1;ratioP1;P1;durP2;ratioP2;P2;SDS_P1;SDS_P2;PMS_P1;PMS_P2;Temp;Humidity;BMP_temperature;BMP_pressure;BME280_temperature;BME280_humidity;BME280_pressure;Samples;Min_cycle;Max_cycle;Signal;HPM_P1;HPM_P2
2022/05/06 00:01:46;;;;;;;37.83;6.90;;;;;;;;;;6162873;23;20079;-90
2022/05/06 00:04:16;;;;;;;34.65;7.32;;;;;;;;;;6187267;23;20434;-91
2022/05/06 00:06:42;;;;;;;29.33;6.72;;;;;;;;;;6187088;22;20025;-90
2022/05/06 00:09:16;;;;;;;28.75;7.90;;;;;;;;;;6187088;23;20493;-90
2022/05/06 00:11:42;;;;;;;37.58;8.27;;;;;;;;;;6187546;23;20056;-90
2022/05/06 00:14:09;;;;;;;29.45;7.40;;;;;;;;;;6187252;23;20044;-89
2022/05/06 00:16:42;;;;;;;31.40;7.20;;;;;;;;;;6162114;23;20484;-91
2022/05/06 00:19:08;;;;;;;44.08;8.85;;;;;;;;;;6188017;23;20021;-89
2022/05/06 00:21:35;;;;;;;45.22;8.50;;;;;;;;;;6161097;23;20028;-89
2022/05/06 00:24:09;;;;;;;47.70;9.60;;;;;;;;;;6163540;23;20056;-89
2022/05/06 00:26:35;;;;;;;37.90;7.82;;;;;;;;;;6186971;23;20021;-90
2022/05/06 00:29:02;;;;;;;45.15;8.75;;;;;;;;;;6185878;23;20024;-90
2022/05/06 00:31:35;;;;;;;33.08;7.57;;;;;;;;;;6162112;23;20021;-89
2022/05/06 00:34:01;;;;;;;41.92;9.13;;;;;;;;;;6187146;23;20028;-90
2022/05/06 00:36:28;;;;;;;42.20;9.02;;;;;;;;;;6161063;23;20047;-90
2022/05/06 00:39:01;;;;;;;52.08;9.43;;;;;;;;;;6162231;23;20064;-89
2022/05/06 00:41:27;;;;;;;48.85;8.20;;;;;;;;;;6160511;23;20080;-91
2022/05/06 00:43:53;;;;;;;38.15;8.75;;;;;;;;;;6160703;23;20036;-89
2022/05/06 00:46:27;;;;;;;37.05;7.88;;;;;;;;;;6162376;23;20390;-89
2022/05/06 00:48:55;;;;;;;57.35;9.73;;;;;;;;;;6160605;23;20024;-89
2022/05/06 00:51:21;;;;;;;;;;;;;;;;;;6186211;23;20803;-90
2022/05/06 00:53:55;;;;;;;48.20;9.45;;;;;;;;;;6162662;23;19916;-89
2022/05/06 00:56:25;;;;;;;46.55;9.27;;;;;;;;;;6160401;23;20062;-89
2022/05/06 00:58:52;;;;;;;56.15;10.05;;;;;;;;;;6186643;23;20036;-90
2022/05/06 01:01:26;;;;;;;46.40;9.27;;;;;;;;;;6162827;23;20028;-90
2022/05/06 01:03:53;;;;;;;46.22;9.43;;;;;;;;;;6187747;23;20021;-90
2022/05/06 01:06:21;;;;;;;50.38;8.98;;;;;;;;;;6155496;23;20463;-89
2022/05/06 01:08:54;;;;;;;45.80;10.40;;;;;;;;;;6154787;23;20021;-90
2022/05/06 01:11:20;;;;;;;36.78;9.02;;;;;;;;;;6154879;23;20056;-89
2022/05/06 01:13:47;;;;;;;45.90;9.98;;;;;;;;;;6154940;23;20037;-89
2022/05/06 01:16:21;;;;;;;51.33;9.38;;;;;;;;;;6156006;23;20037;-90
2022/05/06 01:18:51;;;;;;;49.70;9.73;;;;;;;;;;6153838;23;20017;-89
2022/05/06 01:21:21;;;;;;;55.10;10.85;;;;;;;;;;6156445;23;20063;-90
2022/05/06 01:23:54;;;;;;;50.85;9.80;;;;;;;;;;6155016;23;20056;-90
2022/05/06 01:26:20;;;;;;;42.22;8.80;;;;;;;;;;6154387;23;20344;-89
2022/05/06 01:28:48;;;;;;;55.70;10.15;;;;;;;;;;6155400;23;20352;-89
2022/05/06 01:31:22;;;;;;;60.55;10.50;;;;;;;;;;6155609;23;20021;-90
2022/05/06 01:33:54;;;;;;;49.97;10.90;;;;;;;;;;6156792;23;20048;-90
2022/05/06 01:36:28;;;;;;;42.65;10.07;;;;;;;;;;6154695;23;20056;-89
2022/05/06 01:38:58;;;;;;;65.72;10.85;;;;;;;;;;6155439;23;20017;-90
2022/05/06 01:41:26;;;;;;;61.30;11.40;;;;;;;;;;6155878;23;20021;-91
2022/05/06 01:44:01;;;;;;;56.60;11.00;;;;;;;;;;6155887;23;20033;-90
2022/05/06 01:46:28;;;;;;;66.00;10.18;;;;;;;;;;6155752;23;20029;-90
2022/05/06 01:48:55;;;;;;;65.45;12.02;;;;;;;;;;6155142;23;20025;-89
2022/05/06 01:51:29;;;;;;;73.10;12.07;;;;;;;;;;6156867;23;20032;-89
2022/05/06 01:53:56;;;;;;;51.88;11.02;;;;;;;;;;6156030;23;20037;-88
2022/05/06 01:56:22;;;;;;;55.92;11.60;;;;;;;;;;6155568;23;20026;-90
2022/05/06 01:58:56;;;;;;;77.15;11.10;;;;;;;;;;6155067;23;20100;-89
2022/05/06 02:01:35;;;;;;;57.80;11.10;;;;;;;;;;6156426;23;20101;-90
2022/05/06 02:07:00;;;;;;;54.88;11.48;;;;;;;;;;6176649;23;20537;-90
2022/05/06 02:09:40;;;;;;;63.35;13.32;;;;;;;;;;6161971;23;20048;-89
2022/05/06 02:12:07;;;;;;;60.85;11.82;;;;;;;;;;6185935;23;20394;-89
2022/05/06 02:14:33;;;;;;;57.30;11.63;;;;;;;;;;6185420;23;20529;-89
2022/05/06 02:17:07;;;;;;;64.53;12.55;;;;;;;;;;6161007;23;20021;-90
2022/05/06 02:19:34;;;;;;;70.57;12.45;;;;;;;;;;6186250;23;20045;-91
2022/05/06 02:22:00;;;;;;;63.88;12.88;;;;;;;;;;6159780;23;20021;-90
2022/05/06 02:24:33;;;;;;;64.30;11.77;;;;;;;;;;6162062;23;20048;-89
2022/05/06 02:26:59;;;;;;;59.47;12.15;;;;;;;;;;6185932;23;20017;-89
2022/05/06 02:29:26;;;;;;;77.18;13.48;;;;;;;;;;6159698;23;20037;-90
2022/05/06 02:34:44;;;;;;;64.50;11.65;;;;;;;;;;6185033;23;20088;-89
2022/05/06 02:37:17;;;;;;;68.70;12.98;;;;;;;;;;6185750;23;20043;-90
2022/05/06 02:39:44;;;;;;;60.47;12.60;;;;;;;;;;6159905;23;20093;-89
2022/05/06 02:42:10;;;;;;;66.88;12.93;;;;;;;;;;6187426;23;20071;-90
2022/05/06 02:44:43;;;;;;;68.25;14.32;;;;;;;;;;6184933;23;20466;-88
2022/05/06 02:47:09;;;;;;;73.20;14.07;;;;;;;;;;6159687;23;20076;-89
2022/05/06 02:49:36;;;;;;;76.82;13.43;;;;;;;;;;6186116;23;20021;-89
2022/05/06 02:52:09;;;;;;;86.85;14.48;;;;;;;;;;6161478;23;20056;-89
2022/05/06 02:54:35;;;;;;;71.05;14.48;;;;;;;;;;6158740;23;20024;-90
2022/05/06 02:57:02;;;;;;;87.55;15.52;;;;;;;;;;6186047;23;20060;-89
2022/05/06 02:59:36;;;;;;;69.43;14.70;;;;;;;;;;6160554;23;20032;-88
2022/05/06 03:02:03;;;;;;;85.20;14.45;;;;;;;;;;6160050;23;20056;-90
2022/05/06 03:04:30;;;;;;;85.00;13.38;;;;;;;;;;6159268;23;20032;-89
2022/05/06 03:07:09;;;;;;;79.47;13.80;;;;;;;;;;6185445;23;20052;-89
2022/05/06 03:09:39;;;;;;;76.07;14.27;;;;;;;;;;6159184;23;20048;-89
2022/05/06 03:12:12;;;;;;;65.30;13.65;;;;;;;;;;6161480;23;20043;-88
2022/05/06 03:14:39;;;;;;;79.88;15.05;;;;;;;;;;6185087;23;20429;-89
2022/05/06 03:17:05;;;;;;;77.00;15.70;;;;;;;;;;6185439;23;20021;-90
2022/05/06 03:19:38;;;;;;;90.05;16.13;;;;;;;;;;6160424;23;20025;-89
2022/05/06 03:22:06;;;;;;;74.18;15.90;;;;;;;;;;6185123;23;20017;-89
2022/05/06 03:24:32;;;;;;;;;;;;;;;;;;6159823;23;20032;-89
2022/05/06 03:27:59;;;;;;;92.68;14.35;;;;;;;;;;6185049;23;19939;-89
2022/05/06 03:29:53;;;;;;;78.95;15.57;;;;;;;;;;6185206;23;20413;-89
2022/05/06 03:32:27;;;;;;;75.55;15.43;;;;;;;;;;6184799;23;20041;-89
2022/05/06 03:34:53;;;;;;;;;;;;;;;;;;6186116;23;20670;-89
2022/05/06 03:37:20;;;;;;;66.85;14.52;;;;;;;;;;6185508;23;19924;-89
2022/05/06 03:39:53;;;;;;;72.53;14.90;;;;;;;;;;6184820;23;20024;-89
2022/05/06 03:42:20;;;;;;;79.65;16.20;;;;;;;;;;6184861;23;20049;-90
2022/05/06 03:44:46;;;;;;;71.60;15.98;;;;;;;;;;6185414;23;20113;-89
2022/05/06 03:47:20;;;;;;;73.70;16.38;;;;;;;;;;6185750;23;20351;-89
2022/05/06 03:51:20;;;;;;;83.93;16.70;;;;;;;;;;6160119;23;20051;-89
2022/05/06 03:52:41;;;;;;;68.60;15.88;;;;;;;;;;6184531;23;20048;-89
2022/05/06 03:55:08;;;;;;;73.78;16.60;;;;;;;;;;6184685;23;20524;-89
2022/05/06 03:57:35;;;;;;;75.53;15.35;;;;;;;;;;6185019;23;20044;-89
2022/05/06 04:00:09;;;;;;;53.75;13.95;;;;;;;;;;6184746;23;20025;-89
2022/05/06 04:02:36;;;;;;;55.35;14.35;;;;;;;;;;6184569;23;20024;-90
2022/05/06 04:05:03;;;;;;;62.88;15.07;;;;;;;;;;6159875;23;20470;-87
2022/05/06 04:07:43;;;;;;;54.70;12.88;;;;;;;;;;6184820;23;20021;-87
2022/05/06 04:10:10;;;;;;;67.45;13.88;;;;;;;;;;6184951;23;20063;-86
2022/05/06 04:12:36;;;;;;;70.10;13.80;;;;;;;;;;6184747;23;20029;-87
2022/05/06 04:15:09;;;;;;;47.13;10.45;;;;;;;;;;6160805;23;20048;-90
2022/05/06 04:17:35;;;;;;;55.83;12.23;;;;;;;;;;6158145;23;20474;-89
2022/05/06 04:25:43;;;;;;;43.67;9.82;;;;;;;;;;6182384;23;20021;-87
2022/05/06 04:28:16;;;;;;;35.20;8.88;;;;;;;;;;6160493;23;20454;-88
2022/05/06 04:30:42;;;;;;;42.72;9.30;;;;;;;;;;6158558;23;20173;-89
2022/05/06 04:33:09;;;;;;;33.33;9.35;;;;;;;;;;6158014;23;20046;-88
2022/05/06 04:35:42;;;;;;;45.65;9.95;;;;;;;;;;6184229;23;20075;-89
2022/05/06 04:38:09;;;;;;;39.47;9.50;;;;;;;;;;6157911;23;20096;-88
2022/05/06 04:40:36;;;;;;;41.40;9.50;;;;;;;;;;6184066;23;20508;-88
2022/05/06 04:43:09;;;;;;;38.85;8.82;;;;;;;;;;6159597;23;20021;-87
2022/05/06 04:45:37;;;;;;;39.83;8.30;;;;;;;;;;6157418;23;20033;-89
2022/05/06 04:48:05;;;;;;;26.35;8.30;;;;;;;;;;6184392;23;20646;-89
2022/05/06 04:50:38;;;;;;;31.73;7.85;;;;;;;;;;6158142;23;20246;-88
2022/05/06 04:53:07;;;;;;;33.33;7.60;;;;;;;;;;6185552;23;20025;-90
2022/05/06 04:55:34;;;;;;;24.25;7.00;;;;;;;;;;6159605;23;20252;-90
2022/05/06 04:58:07;;;;;;;24.55;7.15;;;;;;;;;;6186890;23;20032;-90
2022/05/06 05:00:34;;;;;;;30.30;7.80;;;;;;;;;;6160555;23;20780;-90
2022/05/06 05:03:01;;;;;;;35.30;7.25;;;;;;;;;;6160621;23;20248;-90
2022/05/06 05:05:48;;;;;;;25.50;6.90;;;;;;;;;;6162092;23;20055;-90
2022/05/06 05:08:28;;;;;;;28.15;6.78;;;;;;;;;;6155044;23;20021;-90
2022/05/06 05:11:05;;;;;;;21.13;6.65;;;;;;;;;;6154704;23;20041;-90
2022/05/06 05:13:34;;;;;;;20.75;6.65;;;;;;;;;;6156618;23;20497;-90
2022/05/06 05:16:00;;;;;;;31.80;6.97;;;;;;;;;;6155538;23;20359;-88
2022/05/06 05:18:34;;;;;;;29.60;7.47;;;;;;;;;;6155314;23;20025;-89
2022/05/06 05:21:01;;;;;;;31.83;8.05;;;;;;;;;;6155286;23;20053;-89
2022/05/06 05:23:29;;;;;;;30.00;6.37;;;;;;;;;;6155007;23;20048;-87
2022/05/06 05:26:02;;;;;;;26.98;6.75;;;;;;;;;;6156150;23;20372;-87
2022/05/06 05:28:28;;;;;;;26.50;6.65;;;;;;;;;;6155453;23;20029;-88
2022/05/06 05:30:55;;;;;;;31.98;7.35;;;;;;;;;;6157520;23;20072;-87
2022/05/06 05:33:28;;;;;;;27.48;6.75;;;;;;;;;;6154971;23;20014;-87
2022/05/06 05:35:55;;;;;;;30.17;7.15;;;;;;;;;;6154072;23;20021;-87
2022/05/06 05:38:21;;;;;;;24.45;6.88;;;;;;;;;;6155754;23;20410;-91
2022/05/06 05:40:55;;;;;;;27.48;7.05;;;;;;;;;;6155259;23;20017;-87
2022/05/06 05:48:58;;;;;;;15.48;5.10;;;;;;;;;;6155968;23;20017;-87
2022/05/06 05:51:32;;;;;;;25.50;5.60;;;;;;;;;;6155685;23;20068;-85
2022/05/06 05:53:59;;;;;;;27.60;5.53;;;;;;;;;;6155209;23;20021;-87
2022/05/06 05:56:25;;;;;;;22.58;5.45;;;;;;;;;;6156527;23;20072;-86
2022/05/06 05:58:59;;;;;;;24.52;5.20;;;;;;;;;;6156439;23;20025;-87
2022/05/06 06:01:25;;;;;;;19.33;5.72;;;;;;;;;;6155011;23;20026;-87
2022/05/06 06:03:52;;;;;;;13.85;4.22;;;;;;;;;;6156470;23;20013;-90
2022/05/06 06:06:31;;;;;;;25.63;5.63;;;;;;;;;;6158948;23;20052;-90
2022/05/06 06:09:04;;;;;;;22.45;5.57;;;;;;;;;;6186734;23;20075;-89
2022/05/06 06:11:38;;;;;;;20.35;4.22;;;;;;;;;;6185870;23;20096;-88
2022/05/06 06:14:05;;;;;;;23.42;5.28;;;;;;;;;;6185752;23;20068;-89
2022/05/06 06:16:31;;;;;;;17.42;4.95;;;;;;;;;;6158902;23;20021;-89
2022/05/06 06:19:05;;;;;;;17.75;4.53;;;;;;;;;;6161003;23;20461;-89
2022/05/06 06:21:32;;;;;;;17.17;4.70;;;;;;;;;;6185361;23;20037;-89
2022/05/06 06:23:58;;;;;;;16.08;3.88;;;;;;;;;;6186012;23;20067;-90
2022/05/06 06:26:31;;;;;;;13.10;4.18;;;;;;;;;;6184828;23;20056;-89
2022/05/06 06:28:58;;;;;;;15.93;4.18;;;;;;;;;;6159681;23;20473;-88
2022/05/06 06:31:24;;;;;;;14.60;4.00;;;;;;;;;;6159240;23;20040;-89
2022/05/06 06:34:01;;;;;;;11.77;3.83;;;;;;;;;;6185476;23;20041;-89
2022/05/06 06:36:28;;;;;;;14.95;4.05;;;;;;;;;;6158497;23;20028;-90
2022/05/06 06:38:54;;;;;;;16.05;4.03;;;;;;;;;;6159374;23;20024;-89
2022/05/06 06:41:27;;;;;;;11.48;3.40;;;;;;;;;;6160853;23;20021;-89
2022/05/06 06:43:54;;;;;;;15.57;3.90;;;;;;;;;;6159421;23;20037;-89
2022/05/06 06:46:20;;;;;;;14.20;4.13;;;;;;;;;;6185329;23;20028;-89
2022/05/06 06:48:54;;;;;;;15.02;4.07;;;;;;;;;;6160555;23;20025;-90
2022/05/06 06:51:20;;;;;;;16.40;3.42;;;;;;;;;;6185062;23;20025;-89
2022/05/06 06:53:48;;;;;;;11.80;3.17;;;;;;;;;;6159619;23;20083;-89
2022/05/06 06:56:21;;;;;;;16.48;4.47;;;;;;;;;;6160508;23;20062;-89
2022/05/06 06:58:48;;;;;;;15.80;3.38;;;;;;;;;;6185094;23;20079;-88
2022/05/06 07:01:14;;;;;;;11.65;3.20;;;;;;;;;;6159507;23;20028;-89
2022/05/06 07:03:48;;;;;;;17.08;3.20;;;;;;;;;;6185043;23;20028;-88
2022/05/06 07:12:06;;;;;;;19.20;3.50;;;;;;;;;;6154881;23;20076;-89
2022/05/06 07:14:39;;;;;;;11.65;3.38;;;;;;;;;;6153654;23;20060;-88
2022/05/06 07:17:06;;;;;;;8.57;3.20;;;;;;;;;;6153098;23;20580;-87
2022/05/06 07:19:33;;;;;;;12.05;3.20;;;;;;;;;;6153669;23;20071;-90
2022/05/06 07:22:06;;;;;;;11.45;3.00;;;;;;;;;;6153221;23;20048;-88
2022/05/06 07:24:34;;;;;;;11.30;3.38;;;;;;;;;;6154365;23;20060;-89
2022/05/06 07:27:00;;;;;;;;;;;;;;;;;;6153474;23;20064;-89
2022/05/06 07:29:34;;;;;;;12.88;2.58;;;;;;;;;;6153454;23;19947;-87
2022/05/06 07:32:01;;;;;;;12.63;3.28;;;;;;;;;;6154147;23;20026;-89
2022/05/06 07:34:28;;;;;;;9.15;2.78;;;;;;;;;;6154722;23;20076;-88
2022/05/06 07:37:02;;;;;;;7.28;2.60;;;;;;;;;;6153328;23;20025;-88
2022/05/06 07:39:28;;;;;;;10.35;2.95;;;;;;;;;;6154773;23;20060;-89
2022/05/06 07:41:56;;;;;;;13.13;2.72;;;;;;;;;;6152967;23;20026;-86
2022/05/06 07:44:29;;;;;;;6.55;2.22;;;;;;;;;;6152742;23;20033;-89
2022/05/06 07:46:55;;;;;;;16.25;3.10;;;;;;;;;;6153344;23;20049;-88
2022/05/06 07:49:23;;;;;;;11.70;2.95;;;;;;;;;;6154390;23;20032;-88
2022/05/06 07:51:57;;;;;;;11.75;2.53;;;;;;;;;;6153779;23;20489;-88
2022/05/06 07:54:23;;;;;;;5.82;2.38;;;;;;;;;;6154543;23;20049;-88
2022/05/06 07:56:50;;;;;;;10.45;2.38;;;;;;;;;;6154322;23;20025;-90
2022/05/06 07:59:23;;;;;;;8.93;2.45;;;;;;;;;;6153492;23;20057;-87
2022/05/06 08:04:42;;;;;;;7.30;2.50;;;;;;;;;;6156064;23;20021;-88
2022/05/06 08:07:14;;;;;;;6.32;2.58;;;;;;;;;;6162349;22;20092;-88
2022/05/06 08:09:56;;;;;;;6.88;2.15;;;;;;;;;;6160992;23;20017;-88
2022/05/06 08:12:22;;;;;;;6.05;2.10;;;;;;;;;;6186038;23;20051;-88
2022/05/06 08:14:55;;;;;;;7.35;2.13;;;;;;;;;;6185527;23;20021;-88
2022/05/06 08:17:23;;;;;;;5.60;1.80;;;;;;;;;;6160102;23;20063;-89
2022/05/06 08:19:49;;;;;;;7.97;2.30;;;;;;;;;;6159566;23;20028;-88
2022/05/06 08:22:23;;;;;;;4.32;2.10;;;;;;;;;;6160837;23;20092;-88
2022/05/06 08:24:51;;;;;;;9.23;2.10;;;;;;;;;;6159304;23;20478;-88
2022/05/06 08:27:38;;;;;;;7.07;1.80;;;;;;;;;;6164187;23;20021;-88
2022/05/06 08:30:13;;;;;;;6.05;1.98;;;;;;;;;;6185982;23;20037;-87
2022/05/06 08:32:39;;;;;;;7.95;1.88;;;;;;;;;;6160073;23;20021;-88
2022/05/06 08:35:07;;;;;;;7.30;1.92;;;;;;;;;;6185219;23;20021;-87
2022/05/06 08:37:40;;;;;;;6.57;1.75;;;;;;;;;;6160586;23;20036;-88
2022/05/06 08:40:08;;;;;;;7.60;2.40;;;;;;;;;;6158888;23;20470;-89
2022/05/06 08:42:34;;;;;;;9.00;2.15;;;;;;;;;;6185072;23;20512;-88
2022/05/06 08:50:53;;;;;;;3.42;1.40;;;;;;;;;;6183959;23;20021;-88
2022/05/06 08:53:23;;;;;;;8.23;1.90;;;;;;;;;;6184918;23;20688;-88
2022/05/06 08:55:58;;;;;;;4.45;1.75;;;;;;;;;;6160294;23;20037;-88
2022/05/06 08:58:27;;;;;;;4.65;1.80;;;;;;;;;;6158602;23;20087;-88
2022/05/06 09:01:10;;;;;;;9.88;1.85;;;;;;;;;;6185534;23;20071;-88
2022/05/06 09:03:44;;;;;;;4.90;1.50;;;;;;;;;;6160119;23;20087;-88
2022/05/06 09:06:21;;;;;;;5.47;1.70;;;;;;;;;;6185340;23;20052;-89
2022/05/06 09:09:07;;;;;;;4.68;1.35;;;;;;;;;;6135253;23;20029;-88
2022/05/06 09:17:23;;;;;;;5.07;1.80;;;;;;;;;;6155323;23;20070;-88
2022/05/06 09:19:56;;;;;;;6.22;1.67;;;;;;;;;;6153285;23;20025;-87
2022/05/06 09:22:27;;;;;;;8.25;1.90;;;;;;;;;;6155456;23;20013;-89
2022/05/06 09:24:53;;;;;;;5.60;1.77;;;;;;;;;;6128607;23;20032;-88
2022/05/06 09:27:27;;;;;;;6.15;1.40;;;;;;;;;;6130734;23;20058;-88
2022/05/06 09:29:54;;;;;;;5.15;1.45;;;;;;;;;;6128296;23;20053;-88
2022/05/06 09:32:25;;;;;;;5.55;1.50;;;;;;;;;;6153698;23;20024;-89
2022/05/06 09:35:19;;;;;;;6.60;1.65;;;;;;;;;;6154770;23;20041;-89
2022/05/06 09:37:47;;;;;;;9.88;1.73;;;;;;;;;;6129073;23;20076;-89
2022/05/06 09:40:22;;;;;;;5.68;1.75;;;;;;;;;;6154144;23;20029;-88
2022/05/06 09:42:54;;;;;;;4.93;1.83;;;;;;;;;;6154791;23;20076;-88
2022/05/06 09:45:28;;;;;;;4.85;1.60;;;;;;;;;;6154518;23;20037;-89
2022/05/06 09:47:59;;;;;;;5.00;1.60;;;;;;;;;;6154084;23;20032;-87
2022/05/06 09:50:34;;;;;;;4.97;1.42;;;;;;;;;;6154148;23;20032;-87
2022/05/06 09:53:14;;;;;;;5.25;1.77;;;;;;;;;;6131538;23;20374;-85
2022/05/06 09:55:44;;;;;;;7.80;2.05;;;;;;;;;;6128551;23;20028;-85
2022/05/06 09:58:17;;;;;;;7.75;2.10;;;;;;;;;;6130450;23;20029;-86
2022/05/06 10:00:44;;;;;;;7.47;2.67;;;;;;;;;;6154262;23;20033;-86
2022/05/06 10:03:10;;;;;;;8.17;2.43;;;;;;;;;;6153234;23;20024;-87
2022/05/06 10:05:45;;;;;;;6.80;1.98;;;;;;;;;;6128762;23;20030;-87
2022/05/06 10:08:26;;;;;;;13.05;2.40;;;;;;;;;;6137668;23;20022;-87
2022/05/06 10:11:00;;;;;;;5.30;1.50;;;;;;;;;;6153221;23;20053;-87
2022/05/06 10:13:29;;;;;;;6.00;2.00;;;;;;;;;;6155043;23;20049;-86
2022/05/06 10:15:56;;;;;;;6.30;2.38;;;;;;;;;;6152237;23;20030;-87
2022/05/06 10:18:39;;;;;;;5.13;1.95;;;;;;;;;;6154583;23;20526;-87
2022/05/06 10:21:06;;;;;;;4.90;2.35;;;;;;;;;;6152951;23;20052;-87
2022/05/06 10:23:47;;;;;;;6.43;2.28;;;;;;;;;;6152394;23;20027;-85
2022/05/06 10:26:32;;;;;;;3.75;2.00;;;;;;;;;;6153409;23;20088;-87
2022/05/06 10:34:55;;;;;;;7.30;2.50;;;;;;;;;;6154095;23;20052;-86
2022/05/06 10:37:23;;;;;;;4.28;2.25;;;;;;;;;;6153760;23;20088;-87
2022/05/06 10:39:56;;;;;;;9.15;2.90;;;;;;;;;;6153762;23;20052;-87
2022/05/06 10:42:33;;;;;;;7.20;2.65;;;;;;;;;;6153005;23;20032;-87
2022/05/06 10:45:26;;;;;;;6.22;2.45;;;;;;;;;;6153006;23;20045;-87
2022/05/06 10:47:53;;;;;;;5.72;2.63;;;;;;;;;;6154276;23;20021;-88
2022/05/06 10:50:36;;;;;;;6.15;2.35;;;;;;;;;;6153369;23;20026;-88
2022/05/06 10:53:04;;;;;;;10.20;3.10;;;;;;;;;;6154049;23;20088;-89
2022/05/06 10:55:38;;;;;;;8.35;2.90;;;;;;;;;;6152386;23;20398;-88
2022/05/06 10:58:05;;;;;;;6.85;2.92;;;;;;;;;;6153177;23;20058;-88
2022/05/06 11:00:33;;;;;;;6.15;2.55;;;;;;;;;;6154676;23;20032;-89
2022/05/06 11:03:06;;;;;;;7.28;2.80;;;;;;;;;;6153703;23;20072;-88
2022/05/06 11:05:33;;;;;;;7.95;2.70;;;;;;;;;;6152463;23;20079;-88
2022/05/06 11:08:00;;;;;;;5.13;2.72;;;;;;;;;;6151752;23;20026;-89
2022/05/06 11:10:40;;;;;;;4.72;2.65;;;;;;;;;;6154055;23;20041;-88
2022/05/06 11:13:26;;;;;;;5.97;2.97;;;;;;;;;;6154594;23;20096;-88
2022/05/06 11:16:05;;;;;;;8.82;3.00;;;;;;;;;;6152970;23;20428;-88
2022/05/06 11:18:40;;;;;;;6.82;3.10;;;;;;;;;;6153227;23;20025;-89
2022/05/06 11:21:23;;;;;;;4.97;3.00;;;;;;;;;;6153939;23;20028;-89
2022/05/06 11:23:50;;;;;;;6.18;3.50;;;;;;;;;;6152257;23;20098;-88
2022/05/06 11:26:26;;;;;;;8.02;3.60;;;;;;;;;;6154123;23;20052;-88
2022/05/06 11:28:59;;;;;;;5.43;3.03;;;;;;;;;;6152478;23;20025;-88
2022/05/06 11:31:33;;;;;;;6.90;3.83;;;;;;;;;;6154557;23;20110;-89
2022/05/06 11:34:06;;;;;;;8.70;3.33;;;;;;;;;;6153869;23;20022;-88
2022/05/06 11:36:47;;;;;;;8.07;4.10;;;;;;;;;;6152540;23;20269;-87
2022/05/06 11:39:13;;;;;;;8.50;3.65;;;;;;;;;;6153823;23;20485;-88
2022/05/06 11:41:40;;;;;;;6.75;4.03;;;;;;;;;;6151938;23;20064;-89
2022/05/06 11:47:27;;;;;;;9.90;4.43;;;;;;;;;;6153996;23;20053;-88
2022/05/06 11:49:51;;;;;;;9.27;5.07;;;;;;;;;;6153335;23;20065;-87
2022/05/06 11:52:18;;;;;;;8.60;5.10;;;;;;;;;;6152655;23;20108;-89
2022/05/06 11:54:44;;;;;;;8.88;5.45;;;;;;;;;;6152544;23;20025;-89
2022/05/06 11:57:20;;;;;;;12.43;6.00;;;;;;;;;;6153861;23;20025;-88
2022/05/06 11:59:47;;;;;;;7.90;5.68;;;;;;;;;;6152879;23;20022;-88
2022/05/06 12:02:13;;;;;;;16.25;6.75;;;;;;;;;;6152623;23;20033;-89
2022/05/06 12:04:46;;;;;;;10.00;6.20;;;;;;;;;;6152220;23;20469;-89
2022/05/06 12:07:27;;;;;;;12.32;7.07;;;;;;;;;;6152341;23;20558;-89
2022/05/06 12:10:08;;;;;;;11.82;6.20;;;;;;;;;;6129428;23;20032;-89
2022/05/06 12:12:51;;;;;;;11.25;6.50;;;;;;;;;;6127385;23;20069;-89
2022/05/06 12:15:32;;;;;;;10.95;6.90;;;;;;;;;;6128771;23;20058;-87
2022/05/06 12:18:05;;;;;;;11.68;6.53;;;;;;;;;;6153817;23;20479;-89
2022/05/06 12:20:40;;;;;;;10.63;6.53;;;;;;;;;;6129524;23;20025;-89
2022/05/06 12:23:10;;;;;;;11.63;6.95;;;;;;;;;;6128563;23;20026;-87
2022/05/06 12:25:40;;;;;;;11.52;7.13;;;;;;;;;;6153588;23;20052;-88
2022/05/06 12:28:20;;;;;;;9.73;6.65;;;;;;;;;;6129419;23;20017;-88
2022/05/06 12:30:54;;;;;;;10.18;6.35;;;;;;;;;;6127437;23;20466;-88
2022/05/06 12:33:37;;;;;;;9.57;6.55;;;;;;;;;;6130155;23;20017;-89
2022/05/06 12:36:04;;;;;;;9.70;6.20;;;;;;;;;;6127514;23;20104;-88
2022/05/06 12:38:40;;;;;;;9.48;6.10;;;;;;;;;;6130240;23;20092;-88
2022/05/06 12:41:23;;;;;;;8.57;5.97;;;;;;;;;;6153460;23;20059;-90
2022/05/06 12:43:57;;;;;;;9.93;5.68;;;;;;;;;;6129797;23;20025;-89
2022/05/06 12:46:36;;;;;;;8.18;5.78;;;;;;;;;;6127787;23;20025;-89
2022/05/06 12:51:54;;;;;;;9.32;6.45;;;;;;;;;;6155181;23;20013;-89
2022/05/06 12:54:27;;;;;;;9.18;6.78;;;;;;;;;;6156363;23;20022;-88
2022/05/06 12:56:55;;;;;;;10.23;6.63;;;;;;;;;;6129229;23;20105;-88
2022/05/06 12:59:21;;;;;;;;;;;;;;;;;;6156054;23;20347;-89
2022/05/06 13:01:55;;;;;;;11.80;7.40;;;;;;;;;;6129601;23;19917;-88
2022/05/06 13:04:21;;;;;;;10.88;6.60;;;;;;;;;;6155847;23;20029;-89
2022/05/06 13:06:48;;;;;;;10.68;7.00;;;;;;;;;;6129104;23;20018;-88
2022/05/06 13:09:35;;;;;;;9.48;6.80;;;;;;;;;;6145608;23;20404;-89
2022/05/06 13:12:09;;;;;;;10.10;6.57;;;;;;;;;;6154167;23;20033;-89
2022/05/06 13:14:42;;;;;;;11.18;7.55;;;;;;;;;;6154736;23;20018;-89
2022/05/06 13:17:08;;;;;;;9.60;6.88;;;;;;;;;;6155551;23;20049;-89
2022/05/06 13:19:35;;;;;;;9.95;7.28;;;;;;;;;;6154344;23;20068;-89
2022/05/06 13:22:09;;;;;;;8.95;6.38;;;;;;;;;;6155735;23;20084;-89
2022/05/06 13:24:35;;;;;;;8.77;6.35;;;;;;;;;;6153146;23;20040;-89
2022/05/06 13:27:02;;;;;;;7.80;5.88;;;;;;;;;;6153849;23;20396;-89
2022/05/06 13:29:35;;;;;;;13.85;6.57;;;;;;;;;;6153831;23;20529;-86
2022/05/06 13:32:02;;;;;;;8.80;5.22;;;;;;;;;;6153895;23;20022;-87
2022/05/06 13:34:28;;;;;;;9.55;5.55;;;;;;;;;;6154658;23;20391;-86
2022/05/06 13:37:04;;;;;;;8.63;5.10;;;;;;;;;;6153714;23;20037;-87
2022/05/06 13:39:30;;;;;;;9.82;5.03;;;;;;;;;;6154197;23;20527;-87
2022/05/06 13:41:57;;;;;;;11.13;5.75;;;;;;;;;;6156270;23;20459;-86
2022/05/06 13:44:30;;;;;;;9.18;5.85;;;;;;;;;;6153433;23;20045;-90
2022/05/06 13:46:57;;;;;;;11.40;6.00;;;;;;;;;;6155562;23;20025;-89
2022/05/06 13:49:23;;;;;;;10.70;5.68;;;;;;;;;;6153979;23;20025;-89
2022/05/06 13:51:56;;;;;;;9.55;5.35;;;;;;;;;;6153654;23;20018;-89
2022/05/06 13:54:22;;;;;;;8.55;5.20;;;;;;;;;;6153361;23;20483;-89
2022/05/06 13:59:41;;;;;;;9.98;5.45;;;;;;;;;;6155075;23;20025;-89
2022/05/06 14:02:08;;;;;;;8.10;5.17;;;;;;;;;;6155166;23;20029;-90
2022/05/06 14:04:35;;;;;;;9.23;5.15;;;;;;;;;;6153142;23;20392;-89
2022/05/06 14:07:24;;;;;;;8.75;5.07;;;;;;;;;;6154499;23;20025;-89
2022/05/06 14:09:58;;;;;;;9.27;5.28;;;;;;;;;;6183037;22;20757;-89
2022/05/06 14:12:32;;;;;;;12.07;5.40;;;;;;;;;;6184641;23;20387;-89
2022/05/06 14:14:59;;;;;;;7.47;4.78;;;;;;;;;;6183969;23;20099;-88
2022/05/06 14:17:26;;;;;;;11.48;5.07;;;;;;;;;;6157646;23;20025;-88
2022/05/06 14:19:59;;;;;;;8.10;5.15;;;;;;;;;;6159833;23;20055;-88
2022/05/06 14:22:26;;;;;;;10.60;4.93;;;;;;;;;;6183656;23;20056;-87
2022/05/06 14:24:52;;;;;;;7.55;4.60;;;;;;;;;;6182037;23;20554;-86
2022/05/06 14:27:26;;;;;;;8.02;4.50;;;;;;;;;;6183182;23;20466;-88
2022/05/06 14:29:52;;;;;;;11.82;4.40;;;;;;;;;;6157774;23;20401;-87
2022/05/06 14:32:19;;;;;;;8.82;4.15;;;;;;;;;;6184202;23;20025;-88
2022/05/06 14:35:16;;;;;;;9.93;4.53;;;;;;;;;;6160335;23;20024;-88
2022/05/06 14:37:45;;;;;;;9.95;5.20;;;;;;;;;;6183335;23;20056;-90
2022/05/06 14:40:19;;;;;;;8.35;4.30;;;;;;;;;;6160202;23;20024;-89
2022/05/06 14:42:46;;;;;;;6.13;4.60;;;;;;;;;;6183500;23;20070;-88
2022/05/06 14:45:13;;;;;;;14.60;4.22;;;;;;;;;;6157855;23;20057;-89
2022/05/06 14:47:46;;;;;;;5.53;4.45;;;;;;;;;;6159727;23;20091;-89
2022/05/06 14:50:13;;;;;;;8.90;5.30;;;;;;;;;;6157494;23;20032;-88
2022/05/06 14:52:39;;;;;;;7.65;5.15;;;;;;;;;;6156631;23;20055;-88
2022/05/06 14:55:12;;;;;;;8.20;4.95;;;;;;;;;;6159682;23;20449;-88
2022/05/06 14:57:39;;;;;;;12.10;5.57;;;;;;;;;;6183794;23;20021;-89
2022/05/06 15:00:06;;;;;;;7.95;5.45;;;;;;;;;;6158383;23;20352;-89
2022/05/06 15:02:39;;;;;;;12.32;6.25;;;;;;;;;;6159810;23;20112;-89
2022/05/06 15:05:06;;;;;;;10.75;6.40;;;;;;;;;;6157512;23;20049;-89
2022/05/06 15:07:33;;;;;;;11.13;7.10;;;;;;;;;;6156966;23;20027;-89
2022/05/06 15:10:12;;;;;;;12.45;7.13;;;;;;;;;;6152671;23;20292;-88
2022/05/06 15:12:39;;;;;;;13.68;7.45;;;;;;;;;;6152726;23;20041;-89
2022/05/06 15:15:06;;;;;;;10.85;7.28;;;;;;;;;;6154056;23;20064;-89
2022/05/06 15:17:39;;;;;;;11.48;6.93;;;;;;;;;;6152643;23;20051;-90
2022/05/06 15:20:13;;;;;;;11.45;6.68;;;;;;;;;;6151851;23;20060;-88
2022/05/06 15:22:46;;;;;;;12.05;7.53;;;;;;;;;;6150203;23;20026;-89
2022/05/06 15:25:13;;;;;;;10.73;7.63;;;;;;;;;;6153165;23;20049;-89
2022/05/06 15:27:40;;;;;;;14.95;8.05;;;;;;;;;;6151823;23;20538;-89
2022/05/06 15:30:13;;;;;;;10.73;7.90;;;;;;;;;;6151391;23;20072;-88
2022/05/06 15:32:40;;;;;;;10.55;7.63;;;;;;;;;;6153039;23;20021;-90
2022/05/06 15:35:06;;;;;;;12.80;8.32;;;;;;;;;;6152511;23;20053;-88
2022/05/06 15:37:39;;;;;;;18.08;8.50;;;;;;;;;;6149864;23;20514;-89
2022/05/06 15:40:06;;;;;;;15.93;9.73;;;;;;;;;;6152674;23;20049;-89
2022/05/06 15:42:32;;;;;;;18.13;10.30;;;;;;;;;;6151976;23;20403;-89
2022/05/06 15:45:06;;;;;;;18.02;8.82;;;;;;;;;;6150800;23;20276;-89
2022/05/06 15:47:33;;;;;;;18.05;9.80;;;;;;;;;;6150505;23;20064;-89